sensor_id;sensor_type;location;lat;lon;timestamp;P1;durP1;ratioP1;P2;durP2;ratioP2
37495;SDS011;23346;52.088;4.746;2023-09-19T00:01:05;47.27;;;45.20;;
37495;SDS011;23346;52.088;4.746;2023-09-19T00:03:36;49.63;;;47.47;;
37495;SDS011;23346;52.088;4.746;2023-09-19T00:06:02;52.30;;;50.03;;
37495;SDS011;23346;52.088;4.746;2023-09-19T00:08:29;45.53;;;43.53;;
37495;SDS011;23346;52.088;4.746;2023-09-19T00:10:56;46.53;;;44.53;;
37495;SDS011;23346;52.088;4.746;2023-09-19T00:13:30;49.27;;;47.17;;
37495;SDS011;23346;52.088;4.746;2023-09-19T00:15:56;49.83;;;47.53;;
37495;SDS011;23346;52.088;4.746;2023-09-19T00:18:23;51.17;;;48.87;;
37495;SDS011;23346;52.088;4.746;2023-09-19T00:20:53;48.53;;;46.43;;
37495;SDS011;23346;52.088;4.746;2023-09-19T00:23:22;51.90;;;49.63;;
37495;SDS011;23346;52.088;4.746;2023-09-19T00:25:49;54.27;;;51.87;;
37495;SDS011;23346;52.088;4.746;2023-09-19T00:28:16;45.97;;;44.00;;
37495;SDS011;23346;52.088;4.746;2023-09-19T00:30:43;49.50;;;47.37;;
37495;SDS011;23346;52.088;4.746;2023-09-19T00:33:09;50.97;;;48.77;;
37495;SDS011;23346;52.088;4.746;2023-09-19T00:35:36;55.90;;;53.50;;
37495;SDS011;23346;52.088;4.746;2023-09-19T00:38:02;57.27;;;54.73;;
37495;SDS011;23346;52.088;4.746;2023-09-19T00:40:29;63.83;;;60.90;;
37495;SDS011;23346;52.088;4.746;2023-09-19T00:42:57;59.43;;;56.87;;
37495;SDS011;23346;52.088;4.746;2023-09-19T00:45:25;68.00;;;65.03;;
37495;SDS011;23346;52.088;4.746;2023-09-19T00:47:51;70.67;;;67.27;;
37495;SDS011;23346;52.088;4.746;2023-09-19T00:50:18;73.60;;;70.27;;
37495;SDS011;23346;52.088;4.746;2023-09-19T00:52:46;72.90;;;69.70;;
37495;SDS011;23346;52.088;4.746;2023-09-19T00:55:12;73.17;;;69.97;;
37495;SDS011;23346;52.088;4.746;2023-09-19T00:57:40;77.57;;;74.07;;
37495;SDS011;23346;52.088;4.746;2023-09-19T01:00:07;79.60;;;76.03;;
37495;SDS011;23346;52.088;4.746;2023-09-19T01:02:37;74.07;;;70.80;;
37495;SDS011;23346;52.088;4.746;2023-09-19T01:05:03;73.90;;;70.70;;
37495;SDS011;23346;52.088;4.746;2023-09-19T01:07:30;68.87;;;65.87;;
37495;SDS011;23346;52.088;4.746;2023-09-19T01:09:57;62.63;;;59.90;;
37495;SDS011;23346;52.088;4.746;2023-09-19T01:12:27;62.27;;;59.57;;
37495;SDS011;23346;52.088;4.746;2023-09-19T01:14:59;71.17;;;68.07;;
37495;SDS011;23346;52.088;4.746;2023-09-19T01:17:32;67.20;;;64.27;;
37495;SDS011;23346;52.088;4.746;2023-09-19T01:27:56;59.97;;;57.37;;
37495;SDS011;23346;52.088;4.746;2023-09-19T01:30:31;66.03;;;63.13;;
37495;SDS011;23346;52.088;4.746;2023-09-19T01:32:58;61.57;;;58.87;;
37495;SDS011;23346;52.088;4.746;2023-09-19T01:35:24;57.93;;;55.43;;
37495;SDS011;23346;52.088;4.746;2023-09-19T01:37:51;52.37;;;50.10;;
37495;SDS011;23346;52.088;4.746;2023-09-19T01:40:18;59.33;;;56.63;;
37495;SDS011;23346;52.088;4.746;2023-09-19T01:45:13;56.00;;;53.57;;
37495;SDS011;23346;52.088;4.746;2023-09-19T01:47:54;43.80;;;41.90;;
37495;SDS011;23346;52.088;4.746;2023-09-19T01:50:38;50.87;;;48.63;;
37495;SDS011;23346;52.088;4.746;2023-09-19T01:53:10;49.93;;;47.70;;
37495;SDS011;23346;52.088;4.746;2023-09-19T01:55:43;45.50;;;43.50;;
37495;SDS011;23346;52.088;4.746;2023-09-19T01:58:16;51.57;;;49.27;;
37495;SDS011;23346;52.088;4.746;2023-09-19T02:00:44;48.53;;;46.43;;
37495;SDS011;23346;52.088;4.746;2023-09-19T02:03:12;46.73;;;44.73;;
37495;SDS011;23346;52.088;4.746;2023-09-19T02:05:39;48.13;;;46.03;;
37495;SDS011;23346;52.088;4.746;2023-09-19T02:08:05;48.83;;;46.70;;
37495;SDS011;23346;52.088;4.746;2023-09-19T02:10:31;44.10;;;42.13;;
37495;SDS011;23346;52.088;4.746;2023-09-19T02:12:59;43.40;;;41.50;;
37495;SDS011;23346;52.088;4.746;2023-09-19T02:15:25;36.73;;;35.13;;
37495;SDS011;23346;52.088;4.746;2023-09-19T02:17:51;44.17;;;42.10;;
37495;SDS011;23346;52.088;4.746;2023-09-19T02:20:17;39.47;;;37.77;;
37495;SDS011;23346;52.088;4.746;2023-09-19T02:22:45;55.30;;;51.93;;
37495;SDS011;23346;52.088;4.746;2023-09-19T02:25:11;48.83;;;46.67;;
37495;SDS011;23346;52.088;4.746;2023-09-19T02:27:38;44.87;;;42.90;;
37495;SDS011;23346;52.088;4.746;2023-09-19T02:30:04;57.13;;;54.67;;
37495;SDS011;23346;52.088;4.746;2023-09-19T02:32:31;62.37;;;59.67;;
37495;SDS011;23346;52.088;4.746;2023-09-19T02:35:00;60.37;;;57.73;;
37495;SDS011;23346;52.088;4.746;2023-09-19T02:37:26;64.13;;;59.40;;
37495;SDS011;23346;52.088;4.746;2023-09-19T02:39:52;65.07;;;62.23;;
37495;SDS011;23346;52.088;4.746;2023-09-19T02:42:18;68.37;;;65.33;;
37495;SDS011;23346;52.088;4.746;2023-09-19T02:44:44;65.87;;;62.97;;
37495;SDS011;23346;52.088;4.746;2023-09-19T02:47:11;72.00;;;68.83;;
37495;SDS011;23346;52.088;4.746;2023-09-19T02:49:40;72.30;;;69.07;;
37495;SDS011;23346;52.088;4.746;2023-09-19T02:52:07;69.10;;;66.00;;
37495;SDS011;23346;52.088;4.746;2023-09-19T02:54:33;68.20;;;65.20;;
37495;SDS011;23346;52.088;4.746;2023-09-19T02:56:59;46.23;;;43.47;;
37495;SDS011;23346;52.088;4.746;2023-09-19T02:59:25;42.43;;;39.63;;
37495;SDS011;23346;52.088;4.746;2023-09-19T03:01:51;40.42;;;37.00;;
37495;SDS011;23346;52.088;4.746;2023-09-19T03:04:19;44.50;;;41.47;;
37495;SDS011;23346;52.088;4.746;2023-09-19T03:06:45;43.93;;;41.10;;
37495;SDS011;23346;52.088;4.746;2023-09-19T03:09:11;43.20;;;40.60;;
37495;SDS011;23346;52.088;4.746;2023-09-19T03:11:38;45.57;;;41.87;;
37495;SDS011;23346;52.088;4.746;2023-09-19T03:14:05;43.03;;;40.33;;
37495;SDS011;23346;52.088;4.746;2023-09-19T03:16:31;42.87;;;40.27;;
37495;SDS011;23346;52.088;4.746;2023-09-19T03:18:58;44.85;;;41.88;;
37495;SDS011;23346;52.088;4.746;2023-09-19T03:21:24;39.03;;;37.00;;
37495;SDS011;23346;52.088;4.746;2023-09-19T03:23:50;44.70;;;41.57;;
37495;SDS011;23346;52.088;4.746;2023-09-19T03:26:16;43.40;;;40.53;;
37495;SDS011;23346;52.088;4.746;2023-09-19T03:28:42;46.00;;;43.20;;
37495;SDS011;23346;52.088;4.746;2023-09-19T03:31:08;48.17;;;45.25;;
37495;SDS011;23346;52.088;4.746;2023-09-19T03:33:35;47.83;;;44.13;;
37495;SDS011;23346;52.088;4.746;2023-09-19T03:36:02;47.72;;;44.78;;
37495;SDS011;23346;52.088;4.746;2023-09-19T03:38:29;47.73;;;44.57;;
37495;SDS011;23346;52.088;4.746;2023-09-19T03:40:55;46.90;;;43.77;;
37495;SDS011;23346;52.088;4.746;2023-09-19T03:43:21;43.33;;;40.15;;
37495;SDS011;23346;52.088;4.746;2023-09-19T03:45:47;39.57;;;36.97;;
37495;SDS011;23346;52.088;4.746;2023-09-19T03:48:14;38.90;;;36.42;;
37495;SDS011;23346;52.088;4.746;2023-09-19T03:50:40;40.10;;;37.03;;
37495;SDS011;23346;52.088;4.746;2023-09-19T03:53:06;39.67;;;36.60;;
37495;SDS011;23346;52.088;4.746;2023-09-19T03:55:32;41.03;;;38.30;;
37495;SDS011;23346;52.088;4.746;2023-09-19T03:58:00;39.30;;;36.20;;
37495;SDS011;23346;52.088;4.746;2023-09-19T04:00:26;36.53;;;33.60;;
37495;SDS011;23346;52.088;4.746;2023-09-19T04:02:54;38.20;;;35.37;;
37495;SDS011;23346;52.088;4.746;2023-09-19T04:05:21;38.97;;;35.97;;
37495;SDS011;23346;52.088;4.746;2023-09-19T04:07:47;36.67;;;34.17;;
37495;SDS011;23346;52.088;4.746;2023-09-19T04:10:13;38.33;;;35.90;;
37495;SDS011;23346;52.088;4.746;2023-09-19T04:12:40;35.57;;;33.23;;
37495;SDS011;23346;52.088;4.746;2023-09-19T04:15:06;35.77;;;33.67;;
37495;SDS011;23346;52.088;4.746;2023-09-19T04:17:32;38.37;;;35.70;;
37495;SDS011;23346;52.088;4.746;2023-09-19T04:19:58;37.47;;;34.10;;
37495;SDS011;23346;52.088;4.746;2023-09-19T04:22:24;35.97;;;33.43;;
37495;SDS011;23346;52.088;4.746;2023-09-19T04:24:50;37.93;;;35.10;;
37495;SDS011;23346;52.088;4.746;2023-09-19T04:27:16;36.33;;;33.73;;
37495;SDS011;23346;52.088;4.746;2023-09-19T04:29:43;34.70;;;32.23;;
37495;SDS011;23346;52.088;4.746;2023-09-19T04:32:10;40.43;;;37.50;;
37495;SDS011;23346;52.088;4.746;2023-09-19T04:34:38;34.77;;;32.57;;
37495;SDS011;23346;52.088;4.746;2023-09-19T04:37:04;40.20;;;36.83;;
37495;SDS011;23346;52.088;4.746;2023-09-19T04:39:30;42.07;;;38.93;;
37495;SDS011;23346;52.088;4.746;2023-09-19T04:41:55;40.80;;;37.60;;
37495;SDS011;23346;52.088;4.746;2023-09-19T04:44:22;40.90;;;37.53;;
37495;SDS011;23346;52.088;4.746;2023-09-19T04:46:48;42.97;;;39.50;;
37495;SDS011;23346;52.088;4.746;2023-09-19T04:49:15;42.13;;;39.57;;
37495;SDS011;23346;52.088;4.746;2023-09-19T04:51:42;47.03;;;43.57;;
37495;SDS011;23346;52.088;4.746;2023-09-19T04:54:08;46.70;;;43.20;;
37495;SDS011;23346;52.088;4.746;2023-09-19T04:56:34;42.53;;;39.20;;
37495;SDS011;23346;52.088;4.746;2023-09-19T04:59:00;43.13;;;40.47;;
37495;SDS011;23346;52.088;4.746;2023-09-19T05:01:26;44.40;;;41.10;;
37495;SDS011;23346;52.088;4.746;2023-09-19T05:03:52;45.73;;;42.63;;
37495;SDS011;23346;52.088;4.746;2023-09-19T05:06:19;50.13;;;46.80;;
37495;SDS011;23346;52.088;4.746;2023-09-19T05:08:48;50.80;;;47.10;;
37495;SDS011;23346;52.088;4.746;2023-09-19T05:11:18;48.17;;;44.83;;
37495;SDS011;23346;52.088;4.746;2023-09-19T05:13:46;50.93;;;47.70;;
37495;SDS011;23346;52.088;4.746;2023-09-19T05:16:12;51.33;;;48.10;;
37495;SDS011;23346;52.088;4.746;2023-09-19T05:18:38;50.23;;;46.80;;
37495;SDS011;23346;52.088;4.746;2023-09-19T05:21:04;50.80;;;47.53;;
37495;SDS011;23346;52.088;4.746;2023-09-19T05:23:30;51.97;;;48.93;;
37495;SDS011;23346;52.088;4.746;2023-09-19T05:25:57;53.00;;;49.60;;
37495;SDS011;23346;52.088;4.746;2023-09-19T05:28:25;52.37;;;47.67;;
37495;SDS011;23346;52.088;4.746;2023-09-19T05:30:51;50.03;;;47.00;;
37495;SDS011;23346;52.088;4.746;2023-09-19T05:33:18;52.70;;;48.83;;
37495;SDS011;23346;52.088;4.746;2023-09-19T05:35:44;54.17;;;50.63;;
37495;SDS011;23346;52.088;4.746;2023-09-19T05:38:12;50.20;;;47.17;;
37495;SDS011;23346;52.088;4.746;2023-09-19T05:40:39;54.57;;;50.77;;
37495;SDS011;23346;52.088;4.746;2023-09-19T05:43:07;47.30;;;44.13;;
37495;SDS011;23346;52.088;4.746;2023-09-19T05:45:33;51.07;;;47.53;;
37495;SDS011;23346;52.088;4.746;2023-09-19T05:48:07;51.33;;;48.33;;
37495;SDS011;23346;52.088;4.746;2023-09-19T05:50:34;46.80;;;43.47;;
37495;SDS011;23346;52.088;4.746;2023-09-19T05:52:59;45.00;;;42.00;;
37495;SDS011;23346;52.088;4.746;2023-09-19T05:55:25;44.67;;;41.73;;
37495;SDS011;23346;52.088;4.746;2023-09-19T05:57:53;45.93;;;42.57;;
37495;SDS011;23346;52.088;4.746;2023-09-19T06:00:20;40.37;;;37.53;;
37495;SDS011;23346;52.088;4.746;2023-09-19T06:03:07;40.50;;;37.43;;
37495;SDS011;23346;52.088;4.746;2023-09-19T06:05:33;39.60;;;36.57;;
37495;SDS011;23346;52.088;4.746;2023-09-19T06:07:59;39.63;;;36.50;;
37495;SDS011;23346;52.088;4.746;2023-09-19T06:10:26;34.73;;;32.40;;
37495;SDS011;23346;52.088;4.746;2023-09-19T06:12:53;36.67;;;33.97;;
37495;SDS011;23346;52.088;4.746;2023-09-19T06:15:20;44.33;;;41.40;;
37495;SDS011;23346;52.088;4.746;2023-09-19T06:17:50;33.45;;;30.48;;
37495;SDS011;23346;52.088;4.746;2023-09-19T06:20:16;32.22;;;29.73;;
37495;SDS011;23346;52.088;4.746;2023-09-19T06:22:43;34.40;;;31.67;;
37495;SDS011;23346;52.088;4.746;2023-09-19T06:25:09;34.67;;;31.27;;
37495;SDS011;23346;52.088;4.746;2023-09-19T06:27:37;35.67;;;32.40;;
37495;SDS011;23346;52.088;4.746;2023-09-19T06:30:03;44.35;;;41.15;;
37495;SDS011;23346;52.088;4.746;2023-09-19T06:32:29;39.58;;;36.47;;
37495;SDS011;23346;52.088;4.746;2023-09-19T06:34:55;38.75;;;35.50;;
37495;SDS011;23346;52.088;4.746;2023-09-19T06:37:23;35.38;;;31.88;;
37495;SDS011;23346;52.088;4.746;2023-09-19T06:39:52;39.58;;;37.03;;
37495;SDS011;23346;52.088;4.746;2023-09-19T06:42:18;40.55;;;37.45;;
37495;SDS011;23346;52.088;4.746;2023-09-19T06:44:44;36.20;;;33.00;;
37495;SDS011;23346;52.088;4.746;2023-09-19T06:47:10;36.35;;;33.13;;
37495;SDS011;23346;52.088;4.746;2023-09-19T06:49:36;40.92;;;37.75;;
37495;SDS011;23346;52.088;4.746;2023-09-19T06:52:02;35.28;;;32.38;;
37495;SDS011;23346;52.088;4.746;2023-09-19T06:54:29;40.75;;;37.53;;
37495;SDS011;23346;52.088;4.746;2023-09-19T06:56:56;37.55;;;35.00;;
37495;SDS011;23346;52.088;4.746;2023-09-19T06:59:23;44.30;;;41.03;;
37495;SDS011;23346;52.088;4.746;2023-09-19T07:01:49;36.55;;;33.80;;
37495;SDS011;23346;52.088;4.746;2023-09-19T07:04:18;45.47;;;42.25;;
37495;SDS011;23346;52.088;4.746;2023-09-19T07:06:44;41.22;;;38.60;;
37495;SDS011;23346;52.088;4.746;2023-09-19T07:09:11;41.30;;;37.85;;
37495;SDS011;23346;52.088;4.746;2023-09-19T07:11:37;39.20;;;36.45;;
37495;SDS011;23346;52.088;4.746;2023-09-19T07:14:03;51.85;;;48.13;;
37495;SDS011;23346;52.088;4.746;2023-09-19T07:16:30;42.42;;;39.22;;
37495;SDS011;23346;52.088;4.746;2023-09-19T07:18:56;38.35;;;35.72;;
37495;SDS011;23346;52.088;4.746;2023-09-19T07:21:23;58.85;;;55.08;;
37495;SDS011;23346;52.088;4.746;2023-09-19T07:23:49;41.55;;;38.35;;
37495;SDS011;23346;52.088;4.746;2023-09-19T07:26:15;41.35;;;37.65;;
37495;SDS011;23346;52.088;4.746;2023-09-19T07:28:42;41.55;;;38.35;;
37495;SDS011;23346;52.088;4.746;2023-09-19T07:31:08;40.40;;;37.03;;
37495;SDS011;23346;52.088;4.746;2023-09-19T07:33:35;62.58;;;57.92;;
37495;SDS011;23346;52.088;4.746;2023-09-19T07:36:01;42.88;;;39.15;;
37495;SDS011;23346;52.088;4.746;2023-09-19T07:38:27;45.08;;;41.72;;
37495;SDS011;23346;52.088;4.746;2023-09-19T07:40:59;50.55;;;47.20;;
37495;SDS011;23346;52.088;4.746;2023-09-19T07:43:25;48.28;;;44.45;;
37495;SDS011;23346;52.088;4.746;2023-09-19T07:45:51;42.72;;;39.33;;
37495;SDS011;23346;52.088;4.746;2023-09-19T07:48:18;44.42;;;40.97;;
37495;SDS011;23346;52.088;4.746;2023-09-19T07:50:44;46.70;;;42.63;;
37495;SDS011;23346;52.088;4.746;2023-09-19T07:53:10;41.50;;;38.55;;
37495;SDS011;23346;52.088;4.746;2023-09-19T07:55:38;42.58;;;39.55;;
37495;SDS011;23346;52.088;4.746;2023-09-19T07:58:06;38.05;;;35.40;;
37495;SDS011;23346;52.088;4.746;2023-09-19T08:00:32;58.65;;;54.67;;
37495;SDS011;23346;52.088;4.746;2023-09-19T08:02:59;42.80;;;39.63;;
37495;SDS011;23346;52.088;4.746;2023-09-19T08:05:26;40.45;;;37.13;;
37495;SDS011;23346;52.088;4.746;2023-09-19T08:07:52;45.58;;;42.85;;
37495;SDS011;23346;52.088;4.746;2023-09-19T08:10:18;40.10;;;37.60;;
37495;SDS011;23346;52.088;4.746;2023-09-19T08:12:46;42.67;;;38.97;;
37495;SDS011;23346;52.088;4.746;2023-09-19T08:15:13;41.25;;;38.17;;
37495;SDS011;23346;52.088;4.746;2023-09-19T08:17:40;41.90;;;39.13;;
37495;SDS011;23346;52.088;4.746;2023-09-19T08:20:06;40.08;;;36.22;;
37495;SDS011;23346;52.088;4.746;2023-09-19T08:22:32;40.95;;;37.70;;
37495;SDS011;23346;52.088;4.746;2023-09-19T08:24:58;39.25;;;36.40;;
37495;SDS011;23346;52.088;4.746;2023-09-19T08:27:24;37.78;;;34.78;;
37495;SDS011;23346;52.088;4.746;2023-09-19T08:29:53;37.15;;;34.60;;
37495;SDS011;23346;52.088;4.746;2023-09-19T08:32:19;33.38;;;30.58;;
37495;SDS011;23346;52.088;4.746;2023-09-19T08:34:49;32.33;;;29.67;;
37495;SDS011;23346;52.088;4.746;2023-09-19T08:37:15;45.28;;;42.65;;
37495;SDS011;23346;52.088;4.746;2023-09-19T08:39:43;30.92;;;28.65;;
37495;SDS011;23346;52.088;4.746;2023-09-19T08:42:09;31.73;;;28.42;;
37495;SDS011;23346;52.088;4.746;2023-09-19T08:44:37;31.02;;;28.25;;
37495;SDS011;23346;52.088;4.746;2023-09-19T08:47:09;29.13;;;26.88;;
37495;SDS011;23346;52.088;4.746;2023-09-19T08:52:10;33.47;;;31.08;;
37495;SDS011;23346;52.088;4.746;2023-09-19T08:54:38;26.42;;;23.77;;
37495;SDS011;23346;52.088;4.746;2023-09-19T08:57:06;30.55;;;28.33;;
37495;SDS011;23346;52.088;4.746;2023-09-19T08:59:39;31.20;;;28.45;;
37495;SDS011;23346;52.088;4.746;2023-09-19T09:02:08;34.97;;;32.80;;
37495;SDS011;23346;52.088;4.746;2023-09-19T09:04:37;40.22;;;37.47;;
37495;SDS011;23346;52.088;4.746;2023-09-19T09:07:04;32.53;;;29.63;;
37495;SDS011;23346;52.088;4.746;2023-09-19T09:09:30;31.70;;;28.55;;
37495;SDS011;23346;52.088;4.746;2023-09-19T09:11:56;34.67;;;32.63;;
37495;SDS011;23346;52.088;4.746;2023-09-19T09:14:24;39.00;;;36.15;;
37495;SDS011;23346;52.088;4.746;2023-09-19T09:16:50;34.03;;;31.58;;
37495;SDS011;23346;52.088;4.746;2023-09-19T09:19:16;33.53;;;29.77;;
37495;SDS011;23346;52.088;4.746;2023-09-19T09:21:49;35.05;;;32.28;;
37495;SDS011;23346;52.088;4.746;2023-09-19T09:24:30;32.47;;;29.58;;
37495;SDS011;23346;52.088;4.746;2023-09-19T09:26:59;32.70;;;28.92;;
37495;SDS011;23346;52.088;4.746;2023-09-19T09:29:41;25.83;;;23.73;;
37495;SDS011;23346;52.088;4.746;2023-09-19T09:32:24;25.35;;;23.13;;
37495;SDS011;23346;52.088;4.746;2023-09-19T09:34:52;26.65;;;24.10;;
37495;SDS011;23346;52.088;4.746;2023-09-19T09:37:19;31.77;;;29.02;;
37495;SDS011;23346;52.088;4.746;2023-09-19T09:39:55;29.45;;;25.98;;
37495;SDS011;23346;52.088;4.746;2023-09-19T09:42:29;28.77;;;25.80;;
37495;SDS011;23346;52.088;4.746;2023-09-19T09:47:56;56.83;;;53.67;;
37495;SDS011;23346;52.088;4.746;2023-09-19T09:50:26;29.73;;;27.63;;
37495;SDS011;23346;52.088;4.746;2023-09-19T09:53:04;54.40;;;50.38;;
37495;SDS011;23346;52.088;4.746;2023-09-19T09:55:56;29.20;;;27.00;;
37495;SDS011;23346;52.088;4.746;2023-09-19T09:58:22;30.33;;;27.70;;
37495;SDS011;23346;52.088;4.746;2023-09-19T10:00:54;34.53;;;31.40;;
37495;SDS011;23346;52.088;4.746;2023-09-19T10:03:30;27.38;;;25.48;;
37495;SDS011;23346;52.088;4.746;2023-09-19T10:05:56;34.03;;;31.60;;
37495;SDS011;23346;52.088;4.746;2023-09-19T10:08:23;30.70;;;28.77;;
37495;SDS011;23346;52.088;4.746;2023-09-19T10:10:51;29.95;;;27.60;;
37495;SDS011;23346;52.088;4.746;2023-09-19T10:13:17;24.70;;;22.90;;
37495;SDS011;23346;52.088;4.746;2023-09-19T10:15:50;29.63;;;27.45;;
37495;SDS011;23346;52.088;4.746;2023-09-19T10:18:21;33.55;;;30.92;;
37495;SDS011;23346;52.088;4.746;2023-09-19T10:20:47;51.00;;;47.95;;
37495;SDS011;23346;52.088;4.746;2023-09-19T10:23:17;28.48;;;26.33;;
37495;SDS011;23346;52.088;4.746;2023-09-19T10:25:47;29.77;;;27.20;;
37495;SDS011;23346;52.088;4.746;2023-09-19T10:28:14;47.10;;;43.53;;
37495;SDS011;23346;52.088;4.746;2023-09-19T10:30:43;42.40;;;39.30;;
37495;SDS011;23346;52.088;4.746;2023-09-19T10:33:12;40.58;;;37.65;;
37495;SDS011;23346;52.088;4.746;2023-09-19T10:35:39;40.67;;;38.22;;
37495;SDS011;23346;52.088;4.746;2023-09-19T10:38:06;24.15;;;22.35;;
37495;SDS011;23346;52.088;4.746;2023-09-19T10:40:33;28.10;;;25.58;;
37495;SDS011;23346;52.088;4.746;2023-09-19T10:43:02;26.80;;;24.63;;
37495;SDS011;23346;52.088;4.746;2023-09-19T10:45:32;31.10;;;28.90;;
37495;SDS011;23346;52.088;4.746;2023-09-19T10:47:59;32.53;;;30.48;;
37495;SDS011;23346;52.088;4.746;2023-09-19T10:50:26;33.13;;;30.83;;
37495;SDS011;23346;52.088;4.746;2023-09-19T10:52:56;46.30;;;42.95;;
37495;SDS011;23346;52.088;4.746;2023-09-19T10:55:29;35.22;;;32.67;;
37495;SDS011;23346;52.088;4.746;2023-09-19T10:57:56;58.70;;;53.90;;
37495;SDS011;23346;52.088;4.746;2023-09-19T11:00:25;33.83;;;31.63;;
37495;SDS011;23346;52.088;4.746;2023-09-19T11:05:36;30.45;;;28.20;;
37495;SDS011;23346;52.088;4.746;2023-09-19T11:08:05;37.83;;;35.55;;
37495;SDS011;23346;52.088;4.746;2023-09-19T11:10:51;34.13;;;32.17;;
37495;SDS011;23346;52.088;4.746;2023-09-19T11:13:26;30.63;;;28.55;;
37495;SDS011;23346;52.088;4.746;2023-09-19T11:26:51;26.65;;;25.05;;
37495;SDS011;23346;52.088;4.746;2023-09-19T11:29:28;28.15;;;26.23;;
37495;SDS011;23346;52.088;4.746;2023-09-19T11:31:55;27.95;;;26.15;;
37495;SDS011;23346;52.088;4.746;2023-09-19T11:37:03;34.83;;;32.70;;
37495;SDS011;23346;52.088;4.746;2023-09-19T11:39:29;38.05;;;35.58;;
37495;SDS011;23346;52.088;4.746;2023-09-19T11:41:56;27.00;;;25.10;;
37495;SDS011;23346;52.088;4.746;2023-09-19T11:49:17;33.38;;;31.45;;
37495;SDS011;23346;52.088;4.746;2023-09-19T11:51:46;36.25;;;34.25;;
37495;SDS011;23346;52.088;4.746;2023-09-19T11:54:15;40.60;;;37.88;;
37495;SDS011;23346;52.088;4.746;2023-09-19T11:56:43;50.40;;;47.03;;
37495;SDS011;23346;52.088;4.746;2023-09-19T11:59:10;27.83;;;25.38;;
37495;SDS011;23346;52.088;4.746;2023-09-19T12:01:36;28.98;;;27.15;;
37495;SDS011;23346;52.088;4.746;2023-09-19T12:04:05;30.38;;;28.52;;
37495;SDS011;23346;52.088;4.746;2023-09-19T12:06:33;39.58;;;37.50;;
37495;SDS011;23346;52.088;4.746;2023-09-19T12:09:01;32.33;;;29.25;;
37495;SDS011;23346;52.088;4.746;2023-09-19T12:11:31;46.13;;;42.92;;
37495;SDS011;23346;52.088;4.746;2023-09-19T12:13:58;32.20;;;30.38;;
37495;SDS011;23346;52.088;4.746;2023-09-19T12:16:25;28.63;;;27.00;;
37495;SDS011;23346;52.088;4.746;2023-09-19T12:18:55;31.58;;;29.63;;
37495;SDS011;23346;52.088;4.746;2023-09-19T12:21:26;31.05;;;29.02;;
37495;SDS011;23346;52.088;4.746;2023-09-19T12:26:38;29.60;;;27.73;;
37495;SDS011;23346;52.088;4.746;2023-09-19T12:29:09;31.73;;;29.42;;
37495;SDS011;23346;52.088;4.746;2023-09-19T12:31:35;29.85;;;27.92;;
37495;SDS011;23346;52.088;4.746;2023-09-19T12:34:02;27.85;;;26.40;;
37495;SDS011;23346;52.088;4.746;2023-09-19T12:36:28;29.58;;;27.92;;
37495;SDS011;23346;52.088;4.746;2023-09-19T12:38:55;27.00;;;25.55;;
37495;SDS011;23346;52.088;4.746;2023-09-19T12:41:21;27.35;;;25.77;;
37495;SDS011;23346;52.088;4.746;2023-09-19T12:43:47;28.50;;;26.73;;
37495;SDS011;23346;52.088;4.746;2023-09-19T12:46:13;71.07;;;66.57;;
37495;SDS011;23346;52.088;4.746;2023-09-19T12:48:40;28.75;;;26.90;;
37495;SDS011;23346;52.088;4.746;2023-09-19T12:51:09;27.30;;;24.58;;
37495;SDS011;23346;52.088;4.746;2023-09-19T12:53:38;44.20;;;41.75;;
37495;SDS011;23346;52.088;4.746;2023-09-19T12:56:09;31.80;;;29.98;;
37495;SDS011;23346;52.088;4.746;2023-09-19T12:58:53;29.48;;;27.67;;
37495;SDS011;23346;52.088;4.746;2023-09-19T13:01:19;31.45;;;29.75;;
37495;SDS011;23346;52.088;4.746;2023-09-19T13:03:45;42.60;;;40.22;;
37495;SDS011;23346;52.088;4.746;2023-09-19T13:06:11;29.48;;;27.58;;
37495;SDS011;23346;52.088;4.746;2023-09-19T13:08:39;46.03;;;42.80;;
37495;SDS011;23346;52.088;4.746;2023-09-19T13:13:41;31.67;;;29.98;;
37495;SDS011;23346;52.088;4.746;2023-09-19T13:16:09;28.48;;;26.60;;
37495;SDS011;23346;52.088;4.746;2023-09-19T13:18:46;31.40;;;29.60;;
37495;SDS011;23346;52.088;4.746;2023-09-19T13:21:12;30.77;;;28.85;;
37495;SDS011;23346;52.088;4.746;2023-09-19T13:23:51;28.48;;;26.80;;
37495;SDS011;23346;52.088;4.746;2023-09-19T13:26:17;36.03;;;33.67;;
37495;SDS011;23346;52.088;4.746;2023-09-19T13:28:44;49.42;;;46.65;;
37495;SDS011;23346;52.088;4.746;2023-09-19T13:31:12;62.42;;;58.42;;
37495;SDS011;23346;52.088;4.746;2023-09-19T13:33:45;32.55;;;30.85;;
37495;SDS011;23346;52.088;4.746;2023-09-19T13:36:11;26.38;;;24.40;;
37495;SDS011;23346;52.088;4.746;2023-09-19T13:38:41;28.80;;;27.08;;
37495;SDS011;23346;52.088;4.746;2023-09-19T13:41:08;27.45;;;25.98;;
37495;SDS011;23346;52.088;4.746;2023-09-19T13:43:35;29.05;;;27.42;;
37495;SDS011;23346;52.088;4.746;2023-09-19T13:46:00;29.13;;;27.23;;
37495;SDS011;23346;52.088;4.746;2023-09-19T13:48:27;31.13;;;29.23;;
37495;SDS011;23346;52.088;4.746;2023-09-19T13:50:55;29.42;;;26.75;;
37495;SDS011;23346;52.088;4.746;2023-09-19T13:53:21;40.30;;;37.97;;
37495;SDS011;23346;52.088;4.746;2023-09-19T13:55:47;75.65;;;71.18;;
37495;SDS011;23346;52.088;4.746;2023-09-19T13:58:16;30.65;;;28.50;;
37495;SDS011;23346;52.088;4.746;2023-09-19T14:00:41;30.08;;;28.38;;
37495;SDS011;23346;52.088;4.746;2023-09-19T14:03:08;29.90;;;27.85;;
37495;SDS011;23346;52.088;4.746;2023-09-19T14:05:35;35.80;;;33.10;;
37495;SDS011;23346;52.088;4.746;2023-09-19T14:08:02;36.03;;;33.67;;
37495;SDS011;23346;52.088;4.746;2023-09-19T14:10:28;30.92;;;28.75;;
37495;SDS011;23346;52.088;4.746;2023-09-19T14:12:56;28.50;;;26.67;;
37495;SDS011;23346;52.088;4.746;2023-09-19T14:15:26;30.55;;;28.65;;
37495;SDS011;23346;52.088;4.746;2023-09-19T14:17:56;31.75;;;29.67;;
37495;SDS011;23346;52.088;4.746;2023-09-19T14:20:22;32.08;;;30.27;;
37495;SDS011;23346;52.088;4.746;2023-09-19T14:22:48;34.60;;;32.40;;
37495;SDS011;23346;52.088;4.746;2023-09-19T14:25:14;49.58;;;46.38;;
37495;SDS011;23346;52.088;4.746;2023-09-19T14:27:40;49.55;;;46.47;;
37495;SDS011;23346;52.088;4.746;2023-09-19T14:30:06;88.80;;;82.68;;
37495;SDS011;23346;52.088;4.746;2023-09-19T14:32:34;34.72;;;32.70;;
37495;SDS011;23346;52.088;4.746;2023-09-19T14:35:01;52.88;;;49.50;;
37495;SDS011;23346;52.088;4.746;2023-09-19T14:37:26;66.03;;;62.13;;
37495;SDS011;23346;52.088;4.746;2023-09-19T14:39:53;63.05;;;59.17;;
37495;SDS011;23346;52.088;4.746;2023-09-19T14:42:19;71.72;;;67.82;;
37495;SDS011;23346;52.088;4.746;2023-09-19T14:44:45;75.97;;;71.93;;
37495;SDS011;23346;52.088;4.746;2023-09-19T14:47:13;74.57;;;69.82;;
37495;SDS011;23346;52.088;4.746;2023-09-19T14:49:39;61.55;;;58.13;;
37495;SDS011;23346;52.088;4.746;2023-09-19T14:52:09;41.22;;;38.97;;
37495;SDS011;23346;52.088;4.746;2023-09-19T14:54:37;40.38;;;37.03;;
37495;SDS011;23346;52.088;4.746;2023-09-19T14:57:06;31.10;;;29.00;;
37495;SDS011;23346;52.088;4.746;2023-09-19T14:59:33;32.47;;;30.33;;
37495;SDS011;23346;52.088;4.746;2023-09-19T15:02:02;35.20;;;32.70;;
37495;SDS011;23346;52.088;4.746;2023-09-19T15:04:28;87.55;;;80.35;;
37495;SDS011;23346;52.088;4.746;2023-09-19T15:06:54;30.45;;;27.65;;